Time;durP1;ratioP1;P1;durP2;ratioP2;P2;SDS_P1;SDS_P2;PMS_P1;PMS_P2;Temp;Humidity;BMP_temperature;BMP_pressure;BME280_temperature;BME280_humidity;BME280_pressure;Samples;Min_cycle;Max_cycle;Signal;HPM_P1;HPM_P2
2023/05/03 00:02:07;;;;;;;;;14.00;14.00;;;;;14.23;50.71;102136.97;5096584;27;45180;-41
2023/05/03 00:04:33;;;;;;;;;14.67;14.00;;;;;14.22;50.67;102135.28;5097126;27;45520;-41
2023/05/03 00:06:58;;;;;;;;;13.33;10.00;;;;;14.21;51.03;102136.25;5096539;27;45948;-41
2023/05/03 00:09:23;;;;;;;;;14.67;13.67;;;;;14.19;50.57;102132.84;5096587;27;45809;-41
2023/05/03 00:11:48;;;;;;;;;14.33;10.00;;;;;14.14;50.69;102127.06;5096846;27;45372;-41
2023/05/03 00:14:14;;;;;;;;;16.33;13.67;;;;;14.11;51.13;102110.44;5096773;27;45325;-41
2023/05/03 00:16:39;;;;;;;;;15.00;11.00;;;;;14.11;50.85;102121.16;5096805;27;46126;-41
2023/05/03 00:19:05;;;;;;;;;13.33;13.33;;;;;14.01;50.82;102114.94;5096535;27;45366;-41
2023/05/03 00:21:30;;;;;;;;;11.00;10.33;;;;;13.95;50.71;102108.31;5096435;27;45819;-40
2023/05/03 00:23:56;;;;;;;;;15.00;12.33;;;;;13.88;50.99;102096.44;5097017;27;45314;-40
2023/05/03 00:26:21;;;;;;;;;13.67;10.67;;;;;13.94;50.67;102118.13;5096313;27;46053;-41
2023/05/03 00:28:46;;;;;;;;;11.33;8.33;;;;;13.90;50.64;102121.22;5096456;27;45466;-41
2023/05/03 00:31:12;;;;;;;;;10.33;10.33;;;;;13.88;50.39;102134.72;5096351;27;45811;-40
2023/05/03 00:33:37;;;;;;;;;14.00;10.00;;;;;13.86;50.37;102133.16;5096466;27;45469;-41
2023/05/03 00:36:10;;;;;;;;;10.00;8.67;;;;;13.81;50.41;102130.88;5096287;27;46075;-41
2023/05/03 00:38:36;;;;;;;;;13.00;10.33;;;;;13.77;50.09;102131.28;5096350;27;45264;-41
2023/05/03 00:41:02;;;;;;;;;12.00;9.00;;;;;13.75;49.99;102128.75;5096225;27;45331;-42
2023/05/03 00:43:28;;;;;;;;;11.67;9.00;;;;;13.71;50.15;102122.81;5096581;27;45294;-41
2023/05/03 00:45:53;;;;;;;;;12.67;9.00;;;;;13.68;50.06;102132.94;5096590;27;45453;-39
2023/05/03 00:48:19;;;;;;;;;9.33;7.33;;;;;13.65;50.07;102131.41;5099677;27;45333;-41
2023/05/03 00:50:46;;;;;;;;;11.67;10.00;;;;;13.62;49.88;102123.63;5099798;27;45236;-41
2023/05/03 00:53:11;;;;;;;;;8.67;8.67;;;;;13.58;49.97;102121.34;5100104;27;45495;-40
2023/05/03 00:55:37;;;;;;;;;9.33;8.67;;;;;13.57;50.29;102108.94;5099585;27;47102;-40
2023/05/03 00:58:02;;;;;;;;;14.33;12.67;;;;;13.52;49.98;102108.50;5098653;27;45290;-40
2023/05/03 01:00:28;;;;;;;;;8.00;7.33;;;;;13.54;49.79;102110.09;5099494;27;45262;-40
2023/05/03 01:02:53;;;;;;;;;13.33;9.33;;;;;13.53;49.70;102115.56;5100034;27;45324;-41
2023/05/03 01:05:21;;;;;;;;;13.67;11.00;;;;;13.49;49.80;102109.63;5099265;27;46153;-40
2023/05/03 01:08:14;;;;;;;;;10.67;8.67;;;;;13.45;49.81;102113.56;5099410;27;45352;-41
2023/05/03 01:10:54;;;;;;;;;21.00;10.00;;;;;13.40;49.62;102107.72;5099696;27;45399;-41
2023/05/03 01:13:31;;;;;;;;;12.00;10.00;;;;;13.36;49.91;102117.03;5099633;27;45223;-40
2023/05/03 01:16:15;;;;;;;;;10.00;6.67;;;;;13.33;49.60;102109.25;5099097;27;46717;-40
2023/05/03 01:18:45;;;;;;;;;7.00;7.00;;;;;13.28;49.89;102104.31;5099321;27;45385;-40
2023/05/03 01:21:15;;;;;;;;;14.00;9.33;;;;;13.19;50.28;102086.38;5080905;27;45497;-40
2023/05/03 01:24:02;;;;;;;;;12.00;9.33;;;;;13.22;49.91;102094.97;5099523;27;45437;-39
2023/05/03 01:26:28;;;;;;;;;10.00;7.67;;;;;13.13;50.41;102094.88;5098507;27;45245;-40
2023/05/03 01:28:54;;;;;;;;;16.33;9.33;;;;;13.15;49.97;102100.97;5099198;27;45409;-41
2023/05/03 01:31:42;;;;;;;;;8.00;7.67;;;;;13.11;50.22;102092.34;5099391;27;45475;-41
2023/05/03 01:34:16;;;;;;;;;12.33;10.67;;;;;13.08;50.10;102108.63;5099291;27;45623;-40
2023/05/03 01:36:43;;;;;;;;;8.00;7.00;;;;;13.01;50.12;102104.78;5099162;27;45569;-40
2023/05/03 01:39:15;;;;;;;;;12.00;9.67;;;;;13.02;50.40;102111.84;5098972;27;45357;-41
2023/05/03 01:41:42;;;;;;;;;10.00;8.33;;;;;12.99;49.92;102112.94;5098953;27;45396;-40
2023/05/03 01:44:09;;;;;;;;;15.00;11.00;;;;;12.94;49.99;102096.44;5098929;27;45417;-39
2023/05/03 01:46:41;;;;;;;;;13.00;9.00;;;;;12.96;50.59;102104.31;5098584;27;45491;-40
2023/05/03 01:49:08;;;;;;;;;24.00;12.00;;;;;12.87;50.73;102102.44;5098931;27;45432;-40
2023/05/03 01:51:33;;;;;;;;;8.67;8.67;;;;;12.94;50.82;102124.97;5098968;27;45405;-41
2023/05/03 01:53:59;;;;;;;;;16.00;12.00;;;;;12.95;50.54;102129.34;5099059;27;45366;-39
2023/05/03 01:56:25;;;;;;;;;14.33;14.00;;;;;12.89;50.77;102113.81;5098093;27;45986;-40
2023/05/03 01:58:50;;;;;;;;;14.00;13.00;;;;;12.92;50.40;102118.91;5098878;27;45306;-39
2023/05/03 02:01:15;;;;;;;;;13.00;12.00;;;;;12.93;51.00;102124.09;5098756;27;45405;-40
2023/05/03 02:03:41;;;;;;;;;14.00;12.00;;;;;12.93;50.89;102123.25;5099075;27;45298;-39
2023/05/03 02:06:06;;;;;;;;;13.67;11.67;;;;;12.80;50.89;102103.91;5098377;27;51523;-41
2023/05/03 02:08:31;;;;;;;;;10.67;10.00;;;;;12.90;51.06;102127.06;5098746;27;45275;-40
2023/05/03 02:10:57;;;;;;;;;18.33;11.00;;;;;12.87;51.00;102123.78;5098884;27;45275;-39
2023/05/03 02:13:22;;;;;;;;;15.00;12.33;;;;;12.87;50.68;102129.13;5080631;27;45284;-40
2023/05/03 02:15:47;;;;;;;;;14.33;11.00;;;;;12.87;51.15;102129.97;5098267;27;46198;-40
2023/05/03 02:18:15;;;;;;;;;17.67;14.00;;;;;12.88;50.65;102128.16;5098204;27;45335;-40
2023/05/03 02:20:44;;;;;;;;;13.67;13.33;;;;;12.84;51.37;102130.22;5098782;27;45447;-41
2023/05/03 02:23:09;;;;;;;;;16.00;12.00;;;;;12.85;51.51;102131.06;5098592;27;45473;-40
2023/05/03 02:25:34;;;;;;;;;13.67;12.67;;;;;12.83;51.76;102119.69;5097950;27;46203;-40
2023/05/03 02:28:00;;;;;;;;;11.33;8.00;;;;;12.76;52.18;102121.16;5098452;27;45462;-39
2023/05/03 02:30:25;;;;;;;;;18.67;14.67;;;;;12.60;51.61;102098.41;5098305;27;45346;-40
2023/05/03 02:32:51;;;;;;;;;16.33;13.00;;;;;12.71;51.97;102127.72;5098569;27;45223;-40
2023/05/03 02:35:16;;;;;;;;;18.33;14.67;;;;;12.67;52.53;102133.44;5097841;27;46997;-40
2023/05/03 02:37:42;;;;;;;;;18.33;16.33;;;;;12.65;52.76;102122.06;5098005;27;45306;-41
2023/05/03 02:40:10;;;;;;;;;20.67;15.67;;;;;12.63;52.42;102132.00;5097937;27;45347;-40
2023/05/03 02:42:36;;;;;;;;;16.67;11.67;;;;;12.60;52.22;102121.56;5098044;27;45495;-40
2023/05/03 02:45:02;;;;;;;;;19.33;19.33;;;;;12.56;52.83;102128.16;5097764;27;45373;-39
2023/05/03 02:47:27;;;;;;;;;17.33;13.67;;;;;12.56;52.20;102121.00;5097924;27;45661;-40
2023/05/03 02:49:53;;;;;;;;;18.33;15.00;;;;;12.51;52.48;102117.00;5098207;27;45321;-40
2023/05/03 02:52:18;;;;;;;;;19.67;14.33;;;;;12.44;52.99;102122.00;5097957;27;45333;-40
2023/05/03 02:54:45;;;;;;;;;17.00;12.50;;;;;12.44;53.65;102124.66;5097866;27;45798;-40
2023/05/03 02:57:11;;;;;;;;;21.67;13.67;;;;;12.41;53.50;102136.44;5098205;27;45382;-41
2023/05/03 02:59:37;;;;;;;;;12.00;8.33;;;;;12.37;52.93;102128.78;5097860;27;45420;-40
2023/05/03 03:02:02;;;;;;;;;21.00;13.33;;;;;12.36;53.92;102122.63;5097832;27;45282;-41
2023/05/03 03:04:27;;;;;;;;;19.67;16.00;;;;;12.32;53.10;102123.84;5097506;27;46846;-40
2023/05/03 03:06:53;;;;;;;;;18.33;15.33;;;;;12.31;53.40;102122.16;5097680;27;45277;-40
2023/05/03 03:09:18;;;;;;;;;15.00;13.67;;;;;12.28;53.35;102119.72;5096611;27;45297;-40
2023/05/03 03:11:44;;;;;;;;;25.67;16.33;;;;;12.23;52.83;102101.41;5097842;27;45366;-41
2023/05/03 03:14:09;;;;;;;;;19.33;18.00;;;;;12.21;53.92;102102.50;5097539;27;46091;-41
2023/05/03 03:16:35;;;;;;;;;21.00;15.67;;;;;12.15;53.11;102101.19;5097338;27;45348;-39
2023/05/03 03:19:00;;;;;;;;;21.67;19.33;;;;;12.12;53.48;102096.09;5097718;27;45329;-39
2023/05/03 03:21:27;;;;;;;;;16.33;12.00;;;;;12.12;53.53;102104.09;5097649;27;45436;-40
2023/05/03 03:23:53;;;;;;;;;13.67;11.67;;;;;12.08;53.29;102089.31;5097391;27;46293;-40
2023/05/03 03:26:18;;;;;;;;;14.33;13.33;;;;;12.08;53.10;102088.47;5097143;27;45455;-41
2023/05/03 03:28:44;;;;;;;;;11.67;11.00;;;;;12.03;53.32;102077.31;5097722;27;45392;-40
2023/05/03 03:31:09;;;;;;;;;22.67;17.00;;;;;12.02;53.71;102091.63;5097629;27;45241;-40
2023/05/03 03:33:34;;;;;;;;;17.00;12.67;;;;;11.98;53.74;102081.22;5096941;27;45680;-39
2023/05/03 03:36:00;;;;;;;;;25.67;17.67;;;;;11.98;53.85;102083.88;5097008;27;45294;-40
2023/05/03 03:38:25;;;;;;;;;17.67;13.67;;;;;11.98;54.18;102078.53;5097036;27;45229;-40
2023/05/03 03:40:51;;;;;;;;;17.67;13.00;;;;;11.98;54.31;102077.69;5097499;27;45582;-40
2023/05/03 03:43:16;;;;;;;;;22.00;14.33;;;;;11.98;53.92;102077.69;5096796;27;46307;-39
2023/05/03 03:45:42;;;;;;;;;31.33;18.67;;;;;11.96;53.99;102075.13;5096906;27;45258;-41
2023/05/03 03:48:07;;;;;;;;;18.67;14.67;;;;;11.95;54.57;102073.44;5097388;27;45893;-39
2023/05/03 03:50:33;;;;;;;;;24.00;20.00;;;;;11.94;54.48;102069.09;5097462;27;45362;-39
2023/05/03 03:52:58;;;;;;;;;15.33;12.00;;;;;11.93;54.58;102074.56;5096919;27;45563;-40
2023/05/03 03:55:23;;;;;;;;;21.00;16.33;;;;;11.86;54.64;102068.84;5096792;27;45788;-38
2023/05/03 03:57:49;;;;;;;;;18.00;16.00;;;;;11.89;54.55;102073.09;5097109;27;45413;-39
2023/05/03 04:00:14;;;;;;;;;16.00;12.00;;;;;11.87;54.44;102073.22;5097069;27;45474;-38
2023/05/03 04:02:40;;;;;;;;;24.67;17.67;;;;;11.84;54.65;102072.59;5096544;27;47146;-39
2023/05/03 04:05:06;;;;;;;;;21.67;19.00;;;;;11.81;54.79;102075.50;5096770;27;45351;-39
2023/05/03 04:07:32;;;;;;;;;21.33;19.67;;;;;11.80;54.73;102077.31;5096767;27;45406;-39
2023/05/03 04:09:57;;;;;;;;;21.00;20.67;;;;;11.78;54.90;102079.25;5096850;27;45373;-40
2023/05/03 04:12:23;;;;;;;;;22.67;19.33;;;;;11.75;54.34;102076.81;5096597;27;45913;-38
2023/05/03 04:14:48;;;;;;;;;22.00;18.00;;;;;11.76;54.76;102080.34;5096796;27;45414;-39
2023/05/03 04:17:14;;;;;;;;;19.67;16.67;;;;;11.70;54.66;102079.00;5096491;27;45420;-40
2023/05/03 04:19:39;;;;;;;;;23.33;17.33;;;;;11.69;55.15;102079.97;5097304;27;45280;-40
2023/05/03 04:22:05;;;;;;;;;28.67;19.67;;;;;11.69;54.57;102077.31;5100167;27;47207;-41
2023/05/03 04:24:30;;;;;;;;;19.33;18.33;;;;;11.67;54.80;102082.78;5100350;27;45392;-39
2023/05/03 04:26:57;;;;;;;;;23.00;15.33;;;;;11.66;55.31;102073.06;5100219;27;45644;-40
2023/05/03 04:29:23;;;;;;;;;23.00;20.67;;;;;11.64;55.17;102082.16;5100409;27;45411;-39
2023/05/03 04:31:48;;;;;;;;;20.67;19.67;;;;;11.63;54.42;102083.13;5099993;27;45911;-40
2023/05/03 04:34:14;;;;;;;;;25.67;17.33;;;;;11.61;54.83;102083.25;5100101;27;45234;-41
2023/05/03 04:36:45;;;;;;;;;28.00;21.67;;;;;11.59;54.93;102082.53;5100350;27;45339;-40
2023/05/03 04:39:11;;;;;;;;;30.67;25.33;;;;;11.57;54.90;102081.78;5100182;27;45392;-40
2023/05/03 04:41:36;;;;;;;;;33.67;21.67;;;;;11.56;54.67;102076.59;5099556;27;45357;-39
2023/05/03 04:44:01;;;;;;;;;30.67;25.00;;;;;11.55;55.04;102082.91;5099595;27;45456;-38
2023/05/03 04:46:27;;;;;;;;;29.67;25.67;;;;;11.53;55.38;102076.81;5099720;27;45861;-40
2023/05/03 04:48:52;;;;;;;;;29.67;24.00;;;;;11.54;55.15;102084.69;5098599;27;45499;-39
2023/05/03 04:51:17;;;;;;;;;38.67;26.00;;;;;11.55;55.45;102077.56;5099688;27;45225;-40
2023/05/03 04:53:42;;;;;;;;;29.50;24.50;;;;;11.55;55.55;102085.56;5099646;27;45222;-42
2023/05/03 04:56:08;;;;;;;;;27.00;19.67;;;;;11.55;54.89;102094.41;5099666;27;45426;-39
2023/05/03 04:58:35;;;;;;;;;26.67;22.67;;;;;11.57;55.29;102088.94;5100250;27;45302;-40
2023/05/03 05:01:01;;;;;;;;;24.67;22.67;;;;;11.57;55.15;102095.13;5099441;27;45349;-38
2023/05/03 05:03:26;;;;;;;;;27.33;24.00;;;;;11.59;55.21;102085.19;5099293;27;45462;-39
2023/05/03 05:05:51;;;;;;;;;28.33;21.33;;;;;11.61;54.34;102088.56;5099894;27;45500;-40
2023/05/03 05:08:17;;;;;;;;;19.67;18.67;;;;;11.62;55.09;102078.75;5099594;27;45292;-39
2023/05/03 05:10:42;;;;;;;;;24.67;20.67;;;;;11.64;55.20;102085.69;5099436;27;46216;-40
2023/05/03 05:13:08;;;;;;;;;27.00;23.00;;;;;11.63;55.37;102083.13;5099351;27;45268;-40
2023/05/03 05:15:33;;;;;;;;;29.33;20.33;;;;;11.66;55.09;102086.38;5099634;27;45310;-41
2023/05/03 05:17:58;;;;;;;;;24.67;18.00;;;;;11.66;54.81;102085.56;5099601;27;45433;-41
2023/05/03 05:20:24;;;;;;;;;20.00;19.00;;;;;11.64;54.88;102083.00;5099229;27;46157;-40
2023/05/03 05:22:50;;;;;;;;;21.33;17.00;;;;;11.49;55.00;102054.91;5099667;27;45416;-40
2023/05/03 05:25:15;;;;;;;;;27.33;15.67;;;;;11.69;54.98;102091.50;5098069;27;45403;-40
2023/05/03 05:27:40;;;;;;;;;19.00;16.67;;;;;11.73;55.86;102087.63;5099487;27;45382;-40
2023/05/03 05:30:06;;;;;;;;;21.33;20.33;;;;;11.79;55.49;102090.75;5099048;27;45383;-39
2023/05/03 05:32:32;;;;;;;;;20.33;16.33;;;;;11.84;55.28;102083.25;5097933;27;45351;-39
2023/05/03 05:34:57;;;;;;;;;21.33;16.67;;;;;11.81;54.94;102070.16;5099215;27;45266;-39
2023/05/03 05:37:24;;;;;;;;;24.67;15.33;;;;;11.88;55.09;102090.94;5099567;27;45460;-40
2023/05/03 05:39:49;;;;;;;;;18.33;14.33;;;;;11.93;54.53;102085.22;5099044;27;46448;-39
2023/05/03 05:42:14;;;;;;;;;19.67;16.67;;;;;11.78;54.70;102057.06;5099051;27;45493;-40
2023/05/03 05:44:40;;;;;;;;;15.67;12.33;;;;;11.81;54.15;102067.50;5098694;27;45547;-40
2023/05/03 05:47:05;;;;;;;;;20.67;17.00;;;;;11.93;54.48;102082.56;5098926;27;45332;-40
2023/05/03 05:49:31;;;;;;;;;19.67;16.00;;;;;11.91;54.58;102085.31;5098785;27;45424;-41
2023/05/03 05:51:56;;;;;;;;;21.67;18.00;;;;;11.91;55.01;102087.16;5098707;27;45301;-40
2023/05/03 05:54:22;;;;;;;;;22.67;16.33;;;;;11.90;55.02;102088.13;5098959;27;45438;-40
2023/05/03 05:56:47;;;;;;;;;19.67;17.33;;;;;11.93;54.83;102088.75;5098995;27;45389;-41
2023/05/03 05:59:13;;;;;;;;;22.33;18.33;;;;;11.94;54.66;102089.59;5098630;27;46989;-39
2023/05/03 06:01:43;;;;;;;;;16.67;16.67;;;;;11.94;55.15;102095.75;5098579;27;45344;-39
2023/05/03 06:04:08;;;;;;;;;13.67;10.67;;;;;11.97;55.01;102086.69;5098371;27;45419;-39
2023/05/03 06:06:34;;;;;;;;;18.33;14.00;;;;;12.01;54.87;102087.25;5098568;27;45326;-40
2023/05/03 06:08:59;;;;;;;;;17.33;14.33;;;;;12.06;54.57;102093.09;5098208;27;46365;-39
2023/05/03 06:11:25;;;;;;;;;16.67;15.33;;;;;12.12;54.49;102101.44;5098262;27;45311;-40
2023/05/03 06:13:50;;;;;;;;;21.33;20.67;;;;;12.19;54.81;102109.78;5098652;27;45317;-40
2023/05/03 06:16:16;;;;;;;;;41.67;32.67;;;;;12.27;54.64;102109.19;5098444;27;45506;-41
2023/05/03 06:18:41;;;;;;;;;23.00;17.33;;;;;12.33;54.72;102100.66;5098000;27;46270;-40
2023/05/03 06:21:07;;;;;;;;;14.67;13.33;;;;;12.41;53.74;102095.56;5098280;27;45429;-41
2023/05/03 06:23:32;;;;;;;;;19.00;13.67;;;;;12.51;53.72;102092.97;5098531;27;45432;-42
2023/05/03 06:25:57;;;;;;;;;23.67;14.33;;;;;12.66;53.54;102102.38;5098297;27;45369;-41
2023/05/03 06:28:23;;;;;;;;;19.00;17.33;;;;;12.78;53.28;102090.69;5097997;27;45372;-40
2023/05/03 06:30:49;;;;;;;;;26.67;20.67;;;;;12.87;53.18;102089.91;5098041;27;45406;-41
2023/05/03 06:33:14;;;;;;;;;24.00;16.00;;;;;12.97;52.98;102080.13;5097888;27;45431;-41
2023/05/03 06:35:40;;;;;;;;;18.00;14.67;;;;;13.07;52.76;102087.41;5098320;27;45415;-41
2023/05/03 06:38:05;;;;;;;;;20.00;15.00;;;;;13.14;52.70;102085.88;5097787;27;45297;-40
2023/05/03 06:40:31;;;;;;;;;22.33;18.00;;;;;13.19;52.73;102076.50;5097786;27;45381;-41
2023/05/03 06:42:56;;;;;;;;;17.33;13.67;;;;;13.27;52.62;102080.38;5098039;27;45830;-40
2023/05/03 06:45:21;;;;;;;;;22.67;15.67;;;;;13.37;52.37;102079.47;5098147;27;45217;-42
2023/05/03 06:47:48;;;;;;;;;23.67;14.67;;;;;13.46;51.93;102081.34;5097810;27;46147;-41
2023/05/03 06:50:14;;;;;;;;;20.33;16.33;;;;;13.57;51.97;102092.91;5097854;27;45528;-41
2023/05/03 06:52:40;;;;;;;;;22.67;19.00;;;;;13.62;52.02;102086.19;5079526;27;45280;-39
2023/05/03 06:55:06;;;;;;;;;27.33;18.00;;;;;13.75;51.88;102082.47;5098074;27;45360;-41
2023/05/03 06:57:31;;;;;;;;;16.00;13.33;;;;;13.96;51.40;102086.75;5097488;27;46091;-40
2023/05/03 06:59:57;;;;;;;;;17.33;11.33;;;;;14.55;50.47;102085.06;5097698;27;45408;-41
2023/05/03 07:02:24;;;;;;;;;24.33;19.67;;;;;15.28;49.00;102079.22;5079880;27;45357;-42
2023/05/03 07:04:49;;;;;;;;;23.00;14.67;;;;;15.91;47.76;102068.72;5098328;27;45411;-41
2023/05/03 07:07:15;;;;;;;;;20.67;17.00;;;;;16.49;47.16;102065.66;5097833;27;45987;-46
2023/05/03 07:09:40;;;;;;;;;18.00;12.00;;;;;17.01;46.27;102064.94;5097363;27;45377;-40
2023/05/03 07:12:06;;;;;;;;;20.33;14.00;;;;;17.48;46.92;102062.72;5097865;27;45875;-41
2023/05/03 07:14:31;;;;;;;;;17.67;13.67;;;;;17.88;43.67;102055.88;5098072;27;45191;-43
2023/05/03 07:16:57;;;;;;;;;17.33;14.67;;;;;18.26;42.47;102059.88;5097679;27;45447;-43
2023/05/03 07:19:22;;;;;;;;;21.00;14.00;;;;;18.44;43.66;102059.72;5097674;27;45417;-41
2023/05/03 07:21:47;;;;;;;;;18.00;14.00;;;;;18.61;43.50;102061.41;5097960;27;45367;-41
2023/05/03 07:24:13;;;;;;;;;18.00;13.00;;;;;18.88;42.45;102046.81;5097806;27;45379;-40
2023/05/03 07:26:38;;;;;;;;;19.33;15.33;;;;;19.19;42.12;102051.50;5097360;27;45419;-41
2023/05/03 07:29:03;;;;;;;;;18.33;18.33;;;;;19.46;40.65;102036.72;5097469;27;45342;-40
2023/05/03 07:31:29;;;;;;;;;20.00;16.67;;;;;19.72;41.96;102028.41;5097796;27;45314;-39
2023/05/03 07:33:55;;;;;;;;;16.00;13.00;;;;;20.23;39.77;102044.19;5097695;27;45150;-41
2023/05/03 07:36:20;;;;;;;;;14.67;13.00;;;;;20.68;37.44;102032.53;5097357;27;47284;-40
2023/05/03 07:38:46;;;;;;;;;17.00;15.00;;;;;21.41;39.27;102029.16;5097200;27;45369;-47
2023/05/03 07:41:11;;;;;;;;;14.50;10.75;;;;;22.66;39.30;102026.19;5097486;27;45301;-41
2023/05/03 07:43:36;;;;;;;;;18.50;13.50;;;;;24.35;34.27;102007.66;5078980;27;45334;-40
2023/05/03 07:46:02;;;;;;;;;15.50;14.25;;;;;26.38;31.73;102013.88;5096774;27;45417;-40
2023/05/03 07:48:27;;;;;;;;;15.25;12.25;;;;;27.89;29.49;102019.94;5097211;27;45382;-40
2023/05/03 07:50:53;;;;;;;;;13.75;13.75;;;;;29.20;26.73;102009.00;5097237;27;45543;-40
2023/05/03 07:53:18;;;;;;;;;16.50;12.00;;;;;29.91;28.96;102005.00;5097536;27;45366;-39
2023/05/03 07:55:44;;;;;;;;;15.00;15.00;;;;;30.41;24.56;101997.97;5096467;27;46041;-40
2023/05/03 07:58:09;;;;;;;;;15.50;11.25;;;;;31.38;23.48;101997.53;5095978;27;45334;-39
2023/05/03 08:00:34;;;;;;;;;17.25;14.50;;;;;32.08;22.15;101989.53;5097263;27;45352;-40
2023/05/03 08:03:02;;;;;;;;;13.50;11.75;;;;;32.88;22.50;101987.72;5097139;27;45454;-41
2023/05/03 08:05:28;;;;;;;;;13.00;12.60;;;;;33.62;23.51;101976.50;5096775;27;46176;-39
2023/05/03 08:07:53;;;;;;;;;16.50;12.75;;;;;34.10;20.91;101977.19;5097073;27;45352;-40
2023/05/03 08:10:18;;;;;;;;;13.00;13.00;;;;;35.00;21.94;101980.16;5096927;27;45308;-40
2023/05/03 08:12:44;;;;;;;;;17.50;11.75;;;;;35.71;19.94;101976.25;5097023;27;45254;-39
2023/05/03 08:15:10;;;;;;;;;13.50;11.75;;;;;36.35;18.25;101973.59;5096693;27;46270;-39
2023/05/03 08:17:42;;;;;;;;;14.25;10.00;;;;;36.82;21.81;101972.84;5096877;27;45531;-40
2023/05/03 08:20:08;;;;;;;;;12.20;11.60;;;;;37.16;18.56;101974.69;5097002;27;45338;-39
2023/05/03 08:22:36;;;;;;;;;15.80;13.40;;;;;37.52;18.05;101957.59;5097301;27;45272;-39
2023/05/03 08:25:03;;;;;;;;;12.60;11.80;;;;;37.62;18.22;101971.31;5096157;27;46115;-39
2023/05/03 08:27:29;;;;;;;;;14.80;11.80;;;;;37.96;18.24;101965.56;5096824;27;45404;-40
2023/05/03 08:29:54;;;;;;;;;14.00;11.00;;;;;38.53;18.99;101962.66;5097028;27;45452;-40
2023/05/03 08:32:20;;;;;;;;;15.25;13.00;;;;;38.99;16.31;101964.59;5097090;27;45463;-39
2023/05/03 08:34:45;;;;;;;;;12.00;10.75;;;;;39.63;15.74;101965.41;5096465;27;46300;-40
2023/05/03 08:37:11;;;;;;;;;10.50;8.00;;;;;40.34;14.86;101954.50;5096472;27;45258;-40
2023/05/03 08:39:36;;;;;;;;;12.00;10.00;;;;;40.67;15.11;101960.59;5097142;27;45294;-39
2023/05/03 08:42:08;;;;;;;;;11.25;8.75;;;;;40.92;15.62;101964.63;5078416;27;45394;-40
2023/05/03 08:44:43;;;;;;;;;8.20;8.20;;;;;40.80;18.13;101961.63;5096217;27;45280;-40
2023/05/03 08:47:09;;;;;;;;;11.80;9.20;;;;;40.72;15.54;101954.06;5096575;27;45386;-40
2023/05/03 08:49:36;;;;;;;;;10.50;10.50;;;;;40.99;17.45;101966.97;5096650;27;45460;-40
2023/05/03 08:52:05;;;;;;;;;8.60;8.00;;;;;41.14;14.71;101950.59;5096759;27;45209;-40
2023/05/03 08:54:30;;;;;;;;;10.60;10.60;;;;;41.65;14.32;101945.41;5096485;27;46702;-39
2023/05/03 08:56:55;;;;;;;;;10.00;9.00;;;;;42.15;13.94;101953.25;5096228;27;45302;-41
2023/05/03 08:59:21;;;;;;;;;11.75;9.75;;;;;42.29;13.91;101945.50;5096624;27;45465;-41
2023/05/03 09:01:47;;;;;;;;;8.00;8.00;;;;;42.45;16.34;101943.00;5096427;27;45298;-40
2023/05/03 09:04:13;;;;;;;;;8.20;7.80;;;;;42.83;15.28;101944.97;5095929;27;45737;-40
2023/05/03 09:06:38;;;;;;;;;8.25;8.00;;;;;42.94;14.27;101945.41;5078302;27;45574;-39
2023/05/03 09:09:08;;;;;;;;;9.00;9.00;;;;;43.28;13.60;101950.81;5099946;27;45276;-41
2023/05/03 09:11:36;;;;;;;;;9.20;9.20;;;;;43.73;12.37;101933.31;5099946;27;45508;-40
2023/05/03 09:14:20;;;;;;;;;8.00;6.60;;;;;43.96;14.96;101936.59;5099515;27;46701;-41
2023/05/03 09:16:45;;;;;;;;;12.00;8.00;;;;;44.34;12.37;101935.53;5099754;27;45357;-40
2023/05/03 09:19:12;;;;;;;;;9.00;9.00;;;;;44.10;15.25;101938.25;5099842;27;45362;-40
2023/05/03 09:21:39;;;;;;;;;12.60;11.20;;;;;44.15;14.01;101933.22;5098875;27;45453;-40
2023/05/03 09:24:18;;;;;;;;;11.00;9.80;;;;;43.55;12.39;101929.03;5099554;27;45415;-39
2023/05/03 09:26:45;;;;;;;;;8.20;8.20;;;;;43.59;12.20;101924.38;5099380;27;45307;-40
2023/05/03 09:29:33;;;;;;;;;12.20;9.80;;;;;43.86;12.83;101930.59;5099359;27;45343;-40
2023/05/03 09:32:04;;;;;;;;;9.20;7.00;;;;;44.21;13.61;101923.44;5099659;27;45396;-40
2023/05/03 09:34:30;;;;;;;;;9.00;9.00;;;;;44.05;13.20;101926.09;5081238;27;46455;-40
2023/05/03 09:36:56;;;;;;;;;11.20;9.00;;;;;44.19;13.95;101931.38;5098963;27;45390;-40
2023/05/03 09:39:21;;;;;;;;;9.50;9.50;;;;;44.11;12.20;101926.69;5099592;27;45389;-40
2023/05/03 09:41:48;;;;;;;;;10.50;10.00;;;;;44.25;13.45;101932.81;5098804;27;45627;-41
2023/05/03 09:44:13;;;;;;;;;10.00;8.40;;;;;44.03;12.73;101925.59;5099043;27;46386;-41
2023/05/03 09:46:38;;;;;;;;;9.25;7.25;;;;;44.12;13.51;101928.31;5099239;27;45457;-39
2023/05/03 09:49:04;;;;;;;;;8.00;8.00;;;;;44.21;13.02;101917.84;5099197;27;45444;-39
2023/05/03 09:51:32;;;;;;;;;9.00;7.50;;;;;44.37;13.06;101923.59;5099395;27;45507;-40
2023/05/03 09:53:58;;;;;;;;;10.60;8.60;;;;;44.28;13.70;101923.69;5098736;27;45513;-40
2023/05/03 09:56:25;;;;;;;;;9.25;9.00;;;;;43.96;12.82;101924.56;5099400;27;45265;-40
2023/05/03 09:58:53;;;;;;;;;9.00;8.20;;;;;43.64;13.43;101921.38;5099187;27;45454;-40
2023/05/03 10:01:19;;;;;;;;;11.80;9.00;;;;;43.46;12.74;101917.91;5099080;27;45322;-40
2023/05/03 10:03:49;;;;;;;;;9.20;9.00;;;;;43.82;13.36;101916.41;5098724;27;46138;-40
2023/05/03 10:06:30;;;;;;;;;9.60;7.80;;;;;44.02;13.05;101914.75;5098575;27;45468;-42
2023/05/03 10:09:11;;;;;;;;;7.40;7.40;;;;;43.68;12.81;101922.31;5099138;27;45387;-41
2023/05/03 10:11:36;;;;;;;;;6.60;6.20;;;;;43.78;13.31;101913.47;5099115;27;45499;-42
2023/05/03 10:14:04;;;;;;;;;11.75;8.50;;;;;44.11;12.76;101911.84;5098606;27;46274;-41
2023/05/03 10:16:37;;;;;;;;;10.20;8.80;;;;;43.94;13.03;101901.63;5098863;27;45444;-40
2023/05/03 10:19:14;;;;;;;;;7.20;7.00;;;;;43.91;12.58;101885.50;5098477;27;45337;-41
2023/05/03 10:22:05;;;;;;;;;6.40;6.40;;;;;44.18;13.10;101890.47;5098780;27;45230;-41
2023/05/03 10:24:35;;;;;;;;;11.40;8.20;;;;;44.15;13.17;101888.34;5098472;27;46188;-42
2023/05/03 10:27:01;;;;;;;;;10.60;9.40;;;;;44.44;12.14;101889.34;5098675;27;45327;-40
2023/05/03 10:29:47;;;;;;;;;9.40;7.80;;;;;44.26;12.51;101889.56;5098645;27;45360;-41
2023/05/03 10:32:28;;;;;;;;;11.00;9.60;;;;;44.33;13.22;101886.19;5098740;27;45803;-40
2023/05/03 10:35:04;;;;;;;;;11.80;10.00;;;;;44.36;13.02;101882.69;5098507;27;46063;-40
2023/05/03 10:37:33;;;;;;;;;7.60;7.40;;;;;44.10;12.63;101880.19;5097975;27;45441;-42
2023/05/03 10:40:15;;;;;;;;;9.20;8.20;;;;;43.68;13.47;101879.47;5098598;27;45289;-42
2023/05/03 10:42:53;;;;;;;;;9.80;8.00;;;;;43.28;13.79;101864.00;5098528;27;45252;-40
2023/05/03 10:45:27;;;;;;;;;4.80;4.60;;;;;43.27;13.51;101867.94;5098109;27;46099;-40
2023/05/03 10:48:10;;;;;;;;;8.20;8.20;;;;;42.94;13.37;101869.81;5098102;27;45197;-41
2023/05/03 10:50:37;;;;;;;;;12.40;8.00;;;;;42.82;12.45;101868.59;5097942;27;45403;-40
2023/05/03 10:53:02;;;;;;;;;9.80;8.60;;;;;42.67;13.39;101855.19;5098354;27;45496;-40
2023/05/03 10:55:28;;;;;;;;;9.50;9.50;;;;;42.88;13.27;101855.22;5097894;27;45497;-39
2023/05/03 10:57:57;;;;;;;;;12.00;8.00;;;;;42.87;13.89;101849.97;5098122;27;45237;-40
2023/05/03 11:00:35;;;;;;;;;10.20;8.40;;;;;42.18;13.87;101835.13;5098206;27;45360;-40
2023/05/03 11:03:17;;;;;;;;;7.40;7.40;;;;;42.28;13.76;101843.19;5079618;27;45197;-40
2023/05/03 11:05:43;;;;;;;;;5.60;5.60;;;;;42.42;14.53;101831.75;5097561;27;46052;-41
2023/05/03 11:08:20;;;;;;;;;7.80;6.60;;;;;41.91;14.31;101835.59;5097613;27;45426;-40
2023/05/03 11:10:47;;;;;;;;;11.00;8.40;;;;;41.67;13.60;101827.72;5097929;27;45349;-40
2023/05/03 11:13:13;;;;;;;;;8.20;8.20;;;;;41.10;14.03;101825.97;5097976;27;45323;-40